createdAt,value
2018-02-11T00:00:25.872Z,94.80
2018-02-11T00:01:28.394Z,94.80
2018-02-11T00:02:30.945Z,94.90
2018-02-11T00:03:33.471Z,95.00
2018-02-11T00:04:35.990Z,94.90
2018-02-11T00:05:38.506Z,94.80
2018-02-11T00:06:41.030Z,95.00
2018-02-11T00:07:43.597Z,94.80
2018-02-11T00:08:46.149Z,94.90
2018-02-11T00:09:48.664Z,94.90
2018-02-11T00:10:51.216Z,94.80
2018-02-11T00:11:54.496Z,94.80
2018-02-11T00:12:57.866Z,94.70
2018-02-11T00:14:00.380Z,94.70
2018-02-11T00:15:02.905Z,94.60
2018-02-11T00:16:06.233Z,95.00
2018-02-11T00:17:08.773Z,94.70
2018-02-11T00:18:11.291Z,94.70
2018-02-11T00:19:13.805Z,94.70
2018-02-11T00:20:16.320Z,94.80
2018-02-11T00:21:18.890Z,94.70
2018-02-11T00:22:21.497Z,94.80
2018-02-11T00:23:24.794Z,94.70
2018-02-11T00:24:27.319Z,94.70
2018-02-11T00:25:29.837Z,94.70
2018-02-11T00:26:32.397Z,94.60
2018-02-11T00:27:34.916Z,94.60
2018-02-11T00:28:37.433Z,94.70
2018-02-11T00:29:39.961Z,94.40
2018-02-11T00:30:42.480Z,94.50
2018-02-11T00:31:45.024Z,94.30
2018-02-11T00:32:47.541Z,94.50
2018-02-11T00:33:50.070Z,94.50
2018-02-11T00:34:52.587Z,94.50
2018-02-11T00:35:55.152Z,94.50
2018-02-11T00:36:57.668Z,94.40
2018-02-11T00:38:05.908Z,94.60
2018-02-11T00:39:08.461Z,94.40
2018-02-11T00:40:10.991Z,94.40
2018-02-11T00:41:13.506Z,94.50
2018-02-11T00:42:16.025Z,94.50
2018-02-11T00:43:18.590Z,94.50
2018-02-11T00:44:21.390Z,94.50
2018-02-11T00:45:23.904Z,94.60
2018-02-11T00:46:27.190Z,94.20
2018-02-11T00:47:30.473Z,94.30
2018-02-11T00:48:33.825Z,94.20
2018-02-11T00:49:36.353Z,94.20
2018-02-11T00:50:38.873Z,93.90
2018-02-11T00:51:41.393Z,93.80
2018-02-11T00:52:43.910Z,93.90
2018-02-11T00:53:47.237Z,93.50
2018-02-11T00:54:49.761Z,93.50
2018-02-11T00:55:53.053Z,93.70
2018-02-11T00:56:56.338Z,93.50
2018-02-11T00:57:59.620Z,93.50
2018-02-11T00:59:02.941Z,93.60
2018-02-11T01:00:05.459Z,93.60
2018-02-11T01:01:08.788Z,93.60
2018-02-11T01:02:11.308Z,93.60
2018-02-11T01:03:13.820Z,93.60
2018-02-11T01:04:16.341Z,93.60
2018-02-11T01:05:19.637Z,93.80
2018-02-11T01:06:22.942Z,93.70
2018-02-11T01:07:25.458Z,93.70
2018-02-11T01:08:28.021Z,93.50
2018-02-11T01:09:30.557Z,93.40
2018-02-11T01:10:33.080Z,93.40
2018-02-11T01:11:36.369Z,93.50
2018-02-11T01:12:39.657Z,93.40
2018-02-11T01:13:42.940Z,93.20
2018-02-11T01:14:46.258Z,93.30
2018-02-11T01:15:48.818Z,93.20
2018-02-11T01:16:51.333Z,93.20
2018-02-11T01:17:53.860Z,92.90
2018-02-11T01:18:56.389Z,92.90
2018-02-11T01:19:59.683Z,92.60
2018-02-11T01:21:02.309Z,92.60
2018-02-11T01:22:04.821Z,92.50
2018-02-11T01:23:07.369Z,92.40
2018-02-11T01:24:10.650Z,92.20
2018-02-11T01:25:13.940Z,92.30
2018-02-11T01:26:16.515Z,92.30
2018-02-11T01:27:19.078Z,92.10
2018-02-11T01:28:22.365Z,92.10
2018-02-11T01:29:24.891Z,92.10
2018-02-11T01:30:27.409Z,92.10
2018-02-11T01:31:29.924Z,92.10
2018-02-11T01:32:32.485Z,92.10
2018-02-11T01:33:35.002Z,92.00
2018-02-11T01:34:37.527Z,92.00
2018-02-11T01:35:40.038Z,92.00
2018-02-11T01:36:42.564Z,91.80
2018-02-11T01:37:45.124Z,91.90
2018-02-11T01:38:47.644Z,91.60
2018-02-11T01:39:50.162Z,91.80
2018-02-11T01:40:52.682Z,91.70
2018-02-11T01:41:55.196Z,91.80
2018-02-11T01:42:57.752Z,91.80
2018-02-11T01:44:00.313Z,91.70
2018-02-11T01:45:02.843Z,91.80
2018-02-11T01:46:05.361Z,91.90
2018-02-11T01:47:07.871Z,91.80
2018-02-11T01:48:10.387Z,91.80
2018-02-11T01:49:12.950Z,91.90
2018-02-11T01:50:15.470Z,91.90
2018-02-11T01:51:17.989Z,91.90
2018-02-11T01:52:20.504Z,91.90
2018-02-11T01:53:23.025Z,92.20
2018-02-11T01:54:26.348Z,92.10
2018-02-11T01:55:28.861Z,92.10
2018-02-11T01:56:31.382Z,92.00
2018-02-11T01:57:33.907Z,92.40
2018-02-11T01:58:37.192Z,91.90
2018-02-11T01:59:40.516Z,91.90
2018-02-11T02:00:43.044Z,91.90
2018-02-11T02:01:46.326Z,91.70
2018-02-11T02:02:49.608Z,91.60
2018-02-11T02:03:52.897Z,91.40
2018-02-11T02:04:56.221Z,91.40
2018-02-11T02:05:58.776Z,91.40
2018-02-11T02:07:01.293Z,91.40
2018-02-11T02:08:03.845Z,91.30
2018-02-11T02:09:06.372Z,91.40
2018-02-11T02:10:08.884Z,91.40
2018-02-11T02:11:11.398Z,91.20
2018-02-11T02:12:13.960Z,91.20
2018-02-11T02:13:16.486Z,91.20
2018-02-11T02:14:19.010Z,91.20
2018-02-11T02:15:21.534Z,91.30
2018-02-11T02:16:24.826Z,91.20
2018-02-11T02:17:28.145Z,91.00
2018-02-11T02:18:30.804Z,91.00
2018-02-11T02:19:33.325Z,90.90
2018-02-11T02:20:35.862Z,91.00
2018-02-11T02:21:39.140Z,90.90
2018-02-11T02:22:41.700Z,90.90
2018-02-11T02:23:44.224Z,90.90
2018-02-11T02:24:47.504Z,90.70
2018-02-11T02:25:50.784Z,90.60
2018-02-11T02:26:53.302Z,90.50
2018-02-11T02:27:55.866Z,90.60
2018-02-11T02:28:58.386Z,90.60
2018-02-11T02:30:01.674Z,90.30
2018-02-11T02:31:04.977Z,90.40
2018-02-11T02:32:07.502Z,90.40
2018-02-11T02:33:10.081Z,90.20
2018-02-11T02:34:12.601Z,89.70
2018-02-11T02:35:15.128Z,90.30
2018-02-11T02:36:18.408Z,90.10
2018-02-11T02:37:21.705Z,90.10
2018-02-11T02:38:24.310Z,90.10
2018-02-11T02:39:26.803Z,90.10
2018-02-11T02:40:29.357Z,90.10
2018-02-11T02:41:31.878Z,90.00
2018-02-11T02:42:34.409Z,90.00
2018-02-11T02:43:36.974Z,90.10
2018-02-11T02:44:39.492Z,89.80
2018-02-11T02:45:42.013Z,90.40
2018-02-11T02:46:45.302Z,90.00
2018-02-11T02:47:48.588Z,90.00
2018-02-11T02:48:51.921Z,89.90
2018-02-11T02:49:54.456Z,89.80
2018-02-11T02:50:56.977Z,89.40
2018-02-11T02:51:59.498Z,89.60
2018-02-11T02:53:02.026Z,89.40
2018-02-11T02:54:05.445Z,89.70
2018-02-11T02:55:07.968Z,89.70
2018-02-11T02:56:10.481Z,88.90
2018-02-11T02:57:13.006Z,89.00
2018-02-11T02:58:16.315Z,88.80
2018-02-11T02:59:18.877Z,88.80
2018-02-11T03:00:21.437Z,89.00
2018-02-11T03:01:24.731Z,89.20
2018-02-11T03:02:27.241Z,89.20
2018-02-11T03:03:29.762Z,89.00
2018-02-11T03:04:33.082Z,88.60
2018-02-11T03:05:35.609Z,88.70
2018-02-11T03:06:38.896Z,88.90
2018-02-11T03:07:42.314Z,89.10
2018-02-11T03:08:44.827Z,89.10
2018-02-11T03:09:48.121Z,89.00
2018-02-11T03:10:51.404Z,88.70
2018-02-11T03:11:54.689Z,89.00
2018-02-11T03:12:58.012Z,88.90
2018-02-11T03:14:00.526Z,88.90
2018-02-11T03:15:03.045Z,88.90
2018-02-11T03:16:05.561Z,88.30
2018-02-11T03:17:08.855Z,88.40
2018-02-11T03:18:11.443Z,88.40
2018-02-11T03:19:13.958Z,88.70
2018-02-11T03:20:16.492Z,88.20
2018-02-11T03:21:19.005Z,87.90
2018-02-11T03:22:22.284Z,87.10
2018-02-11T03:23:24.837Z,87.60
2018-02-11T03:24:27.392Z,87.50
2018-02-11T03:25:29.954Z,86.80
2018-02-11T03:26:32.465Z,86.60
2018-02-11T03:27:35.752Z,86.00
2018-02-11T03:28:39.038Z,86.20
2018-02-11T03:29:42.321Z,85.80
2018-02-11T03:30:45.632Z,84.90
2018-02-11T03:31:48.154Z,84.90
2018-02-11T03:32:50.673Z,84.80
2018-02-11T03:33:53.201Z,85.70
2018-02-11T03:34:56.529Z,84.80
2018-02-11T03:35:59.041Z,84.80
2018-02-11T03:37:02.326Z,84.10
2018-02-11T03:38:05.612Z,84.20
2018-02-11T03:39:08.892Z,84.10
2018-02-11T03:40:12.213Z,84.10
2018-02-11T03:41:14.730Z,83.90
2018-02-11T03:42:17.246Z,83.80
2018-02-11T03:43:19.800Z,84.10
2018-02-11T03:44:22.316Z,84.10
2018-02-11T03:45:25.593Z,83.80
2018-02-11T03:46:28.104Z,83.30
2018-02-11T03:47:31.400Z,83.90
2018-02-11T03:48:33.946Z,83.90
2018-02-11T03:49:37.230Z,84.10
2018-02-11T03:50:40.513Z,83.90
2018-02-11T03:51:43.796Z,84.20
2018-02-11T03:52:47.082Z,84.00
2018-02-11T03:53:50.401Z,83.70
2018-02-11T03:54:52.918Z,83.60
2018-02-11T03:55:55.482Z,83.70
2018-02-11T03:56:58.002Z,83.60
2018-02-11T03:58:00.519Z,83.60
2018-02-11T03:59:03.034Z,83.70
2018-02-11T04:00:05.551Z,83.60
2018-02-11T04:01:09.045Z,84.50
2018-02-11T04:02:12.331Z,83.50
2018-02-11T04:03:15.613Z,83.30
2018-02-11T04:04:18.905Z,83.60
2018-02-11T04:05:22.180Z,83.00
2018-02-11T04:06:25.493Z,82.40
2018-02-11T04:07:28.028Z,82.40
2018-02-11T04:08:31.305Z,82.50
2018-02-11T04:09:33.821Z,82.40
2018-02-11T04:10:36.438Z,82.30
2018-02-11T04:11:38.977Z,82.40
2018-02-11T04:12:41.503Z,82.40
2018-02-11T04:13:44.029Z,82.50
2018-02-11T04:14:46.540Z,82.60
2018-02-11T04:15:49.058Z,82.70
2018-02-11T04:16:51.624Z,82.60
2018-02-11T04:17:54.133Z,82.90
2018-02-11T04:18:56.661Z,83.20
2018-02-11T04:19:59.964Z,82.80
2018-02-11T04:21:03.244Z,82.80
2018-02-11T04:22:06.555Z,82.80
2018-02-11T04:23:09.074Z,82.80
2018-02-11T04:24:11.757Z,82.80
2018-02-11T04:25:15.042Z,83.40
2018-02-11T04:26:18.361Z,82.70
2018-02-11T04:27:20.876Z,82.70
2018-02-11T04:28:23.443Z,83.00
2018-02-11T04:29:25.954Z,83.00
2018-02-11T04:30:28.469Z,83.00
2018-02-11T04:31:30.997Z,82.70
2018-02-11T04:32:33.512Z,83.00
2018-02-11T04:33:36.057Z,82.70
2018-02-11T04:34:38.572Z,82.40
2018-02-11T04:35:41.088Z,82.40
2018-02-11T04:36:43.640Z,82.40
2018-02-11T04:37:46.156Z,82.90
2018-02-11T04:38:49.436Z,83.10
2018-02-11T04:39:52.754Z,83.10
2018-02-11T04:40:55.268Z,83.00
2018-02-11T04:41:57.782Z,83.10
2018-02-11T04:43:00.338Z,83.50
2018-02-11T04:44:02.863Z,83.50
2018-02-11T04:45:05.380Z,83.80
2018-02-11T04:46:07.893Z,83.70
2018-02-11T04:47:10.543Z,83.90
2018-02-11T04:48:13.093Z,84.10
2018-02-11T04:49:15.625Z,84.00
2018-02-11T04:50:18.157Z,84.30
2018-02-11T04:51:20.664Z,84.60
2018-02-11T04:52:23.185Z,84.20
2018-02-11T04:53:25.748Z,84.20
2018-02-11T04:54:28.296Z,84.50
2018-02-11T04:55:30.796Z,84.40
2018-02-11T04:56:33.322Z,84.90
2018-02-11T04:57:35.837Z,85.10
2018-02-11T04:58:38.396Z,85.10
2018-02-11T04:59:40.911Z,84.90
2018-02-11T05:00:43.461Z,84.90
2018-02-11T05:01:45.993Z,85.20
2018-02-11T05:02:48.504Z,85.20
2018-02-11T05:03:51.030Z,85.10
2018-02-11T05:04:53.552Z,85.50
2018-02-11T05:05:56.113Z,86.60
2018-02-11T05:06:58.627Z,85.90
2018-02-11T05:08:01.153Z,86.10
2018-02-11T05:09:03.686Z,86.90
2018-02-11T05:10:06.199Z,85.90
2018-02-11T05:11:08.762Z,86.20
2018-02-11T05:12:11.269Z,86.40
2018-02-11T05:13:14.554Z,86.80
2018-02-11T05:14:17.850Z,86.80
2018-02-11T05:15:20.364Z,86.70
2018-02-11T05:16:22.909Z,86.90
2018-02-11T05:17:25.428Z,86.80
2018-02-11T05:18:28.703Z,87.30
2018-02-11T05:19:31.254Z,87.00
2018-02-11T05:20:33.772Z,87.30
2018-02-11T05:21:36.320Z,87.40
2018-02-11T05:22:39.588Z,87.60
2018-02-11T05:23:42.100Z,87.60
2018-02-11T05:24:44.644Z,88.30
2018-02-11T05:25:47.158Z,88.10
2018-02-11T05:26:49.664Z,88.10
2018-02-11T05:27:52.980Z,88.40
2018-02-11T05:28:55.493Z,88.30
2018-02-11T05:29:58.003Z,88.50
2018-02-11T05:31:00.608Z,88.50
2018-02-11T05:32:03.123Z,88.60
2018-02-11T05:33:05.686Z,88.70
2018-02-11T05:34:08.201Z,88.80
2018-02-11T05:35:10.715Z,88.80
2018-02-11T05:36:14.004Z,89.00
2018-02-11T05:37:16.528Z,88.90
2018-02-11T05:38:19.069Z,88.90
2018-02-11T05:39:21.590Z,89.10
2018-02-11T05:40:24.869Z,89.30
2018-02-11T05:41:28.152Z,89.30
2018-02-11T05:42:31.425Z,89.30
2018-02-11T05:43:33.977Z,89.30
2018-02-11T05:44:36.650Z,89.60
2018-02-11T05:45:39.957Z,89.20
2018-02-11T05:46:43.317Z,89.10
2018-02-11T05:47:45.824Z,89.10
2018-02-11T05:48:48.382Z,88.80
2018-02-11T05:49:51.698Z,88.70
2018-02-11T05:50:54.212Z,88.80
2018-02-11T05:51:56.725Z,88.60
2018-02-11T05:52:59.235Z,89.00
2018-02-11T05:54:01.783Z,88.40
2018-02-11T05:55:04.296Z,88.70
2018-02-11T05:56:07.610Z,88.90
2018-02-11T05:57:10.120Z,88.90
2018-02-11T05:58:12.639Z,88.60
2018-02-11T05:59:15.184Z,88.70
2018-02-11T06:00:18.478Z,88.70
2018-02-11T06:01:21.214Z,88.60
2018-02-11T06:02:23.728Z,88.70
2018-02-11T06:03:26.244Z,88.40
2018-02-11T06:04:28.800Z,88.30
2018-02-11T06:05:31.322Z,88.30
2018-02-11T06:06:33.832Z,88.00
2018-02-11T06:07:36.336Z,88.00
2018-02-11T06:08:38.845Z,87.80
2018-02-11T06:09:41.411Z,88.10
2018-02-11T06:10:43.930Z,88.40
2018-02-11T06:11:47.211Z,88.60
2018-02-11T06:12:50.495Z,88.70
2018-02-11T06:13:53.777Z,88.80
2018-02-11T06:14:57.084Z,89.00
2018-02-11T06:15:59.609Z,88.90
2018-02-11T06:17:02.161Z,89.00
2018-02-11T06:18:04.697Z,89.40
2018-02-11T06:19:07.211Z,89.60
2018-02-11T06:20:10.493Z,89.80
2018-02-11T06:21:13.769Z,90.00
2018-02-11T06:22:16.322Z,90.00
2018-02-11T06:23:18.844Z,89.90
2018-02-11T06:24:21.353Z,90.10
2018-02-11T06:25:23.873Z,90.10
2018-02-11T06:26:26.386Z,90.30
2018-02-11T06:27:28.932Z,90.10
2018-02-11T06:28:31.450Z,90.30
2018-02-11T06:29:34.732Z,90.40
2018-02-11T06:30:38.041Z,90.40
2018-02-11T06:31:40.560Z,90.40
2018-02-11T06:32:43.074Z,90.50
2018-02-11T06:33:45.621Z,90.50
2018-02-11T06:34:48.903Z,90.60
2018-02-11T06:35:51.424Z,90.60
2018-02-11T06:36:53.972Z,90.70
2018-02-11T06:37:56.485Z,90.60
2018-02-11T06:38:59.764Z,90.60
2018-02-11T06:40:02.314Z,90.60
2018-02-11T06:41:04.868Z,90.70
2018-02-11T06:42:07.388Z,90.70
2018-02-11T06:43:09.902Z,90.90
2018-02-11T06:44:12.420Z,90.80
2018-02-11T06:45:14.936Z,90.90
2018-02-11T06:46:17.481Z,90.90
2018-02-11T06:47:19.992Z,91.00
2018-02-11T06:48:22.505Z,91.00
2018-02-11T06:49:25.027Z,91.10
2018-02-11T06:50:28.337Z,91.10
2018-02-11T06:51:30.850Z,91.10
2018-02-11T06:52:33.385Z,91.10
2018-02-11T06:53:35.897Z,91.10
2018-02-11T06:54:38.419Z,91.30
2018-02-11T06:55:40.965Z,91.50
2018-02-11T06:56:43.480Z,91.90
2018-02-11T06:57:46.026Z,92.30
2018-02-11T06:58:48.541Z,92.50
2018-02-11T06:59:51.820Z,92.70
2018-02-11T07:00:54.341Z,92.70
2018-02-11T07:01:56.856Z,92.80
2018-02-11T07:03:00.169Z,92.70
2018-02-11T07:04:02.683Z,92.70
2018-02-11T07:05:05.198Z,92.70
2018-02-11T07:06:07.712Z,92.70
2018-02-11T07:07:10.225Z,92.50
2018-02-11T07:08:12.864Z,92.70
2018-02-11T07:09:15.378Z,92.50
2018-02-11T07:10:17.896Z,92.60
2018-02-11T07:11:20.400Z,92.80
2018-02-11T07:12:22.914Z,92.90
2018-02-11T07:13:25.461Z,93.00
2018-02-11T07:14:27.991Z,93.10
2018-02-11T07:15:30.514Z,93.00
2018-02-11T07:16:33.033Z,92.80
2018-02-11T07:17:35.545Z,92.60
2018-02-11T07:18:38.095Z,92.50
2018-02-11T07:19:40.601Z,92.40
2018-02-11T07:20:43.882Z,92.50
2018-02-11T07:21:47.161Z,92.40
2018-02-11T07:22:50.450Z,92.30
2018-02-11T07:23:53.761Z,92.30
2018-02-11T07:24:56.305Z,92.30
2018-02-11T07:25:58.830Z,92.30
2018-02-11T07:27:01.337Z,92.30
2018-02-11T07:28:04.652Z,92.80
2018-02-11T07:29:07.169Z,92.80
2018-02-11T07:30:09.701Z,93.00
2018-02-11T07:31:12.257Z,93.00
2018-02-11T07:32:14.772Z,93.10
2018-02-11T07:33:18.056Z,93.20
2018-02-11T07:34:21.362Z,93.10
2018-02-11T07:35:23.884Z,93.10
2018-02-11T07:36:26.413Z,93.00
2018-02-11T07:37:28.971Z,92.90
2018-02-11T07:38:31.481Z,93.00
2018-02-11T07:39:34.000Z,93.20
2018-02-11T07:40:36.512Z,93.30
2018-02-11T07:41:39.033Z,93.30
2018-02-11T07:42:41.579Z,93.40
2018-02-11T07:43:44.855Z,93.90
2018-02-11T07:44:48.394Z,93.50
2018-02-11T07:45:50.910Z,93.50
2018-02-11T07:46:54.242Z,93.20
2018-02-11T07:47:56.763Z,93.20
2018-02-11T07:49:00.054Z,93.10
2018-02-11T07:50:02.584Z,93.10
2018-02-11T07:51:05.111Z,93.00
2018-02-11T07:52:07.661Z,93.10
2018-02-11T07:53:10.172Z,93.30
2018-02-11T07:54:12.682Z,93.30
2018-02-11T07:55:15.957Z,93.60
2018-02-11T07:56:19.237Z,93.70
2018-02-11T07:57:21.888Z,93.70
2018-02-11T07:58:24.398Z,94.00
2018-02-11T07:59:27.012Z,93.90
2018-02-11T08:00:29.521Z,94.20
2018-02-11T08:01:32.040Z,94.00
2018-02-11T08:02:34.589Z,94.40
2018-02-11T08:03:37.153Z,94.40
2018-02-11T08:04:39.670Z,94.80
2018-02-11T08:06:52.594Z,95.70
2018-02-11T08:07:55.913Z,96.10
2018-02-11T08:08:58.429Z,96.10
2018-02-11T08:10:00.938Z,96.40
2018-02-11T08:11:03.457Z,96.60
2018-02-11T08:12:05.970Z,96.70
2018-02-11T08:13:08.533Z,97.20
2018-02-11T08:14:11.046Z,97.20
2018-02-11T08:15:13.559Z,97.40
2018-02-11T08:16:16.077Z,97.50
2018-02-11T08:17:18.585Z,97.60
2018-02-11T08:18:21.141Z,97.80
2018-02-11T08:19:23.660Z,98.00
2018-02-11T08:20:26.173Z,98.10
2018-02-11T08:21:29.463Z,98.50
2018-02-11T08:22:31.980Z,98.50
2018-02-11T08:23:34.521Z,98.70
2018-02-11T08:24:37.038Z,98.80
2018-02-11T08:25:40.336Z,98.90
2018-02-11T08:26:43.617Z,99.10
2018-02-11T08:27:47.025Z,99.10
2018-02-11T08:28:49.545Z,99.10
2018-02-11T08:29:52.070Z,99.30
2018-02-11T08:30:54.591Z,99.40
2018-02-11T08:31:57.869Z,99.80
2018-02-11T08:33:00.444Z,99.50
2018-02-11T08:34:03.724Z,99.70
2018-02-11T08:35:07.017Z,99.70
2018-02-11T08:36:09.552Z,99.70
2018-02-11T08:37:12.073Z,99.80
2018-02-11T08:38:14.626Z,99.90
2018-02-11T08:39:17.185Z,99.90
2018-02-11T08:40:19.720Z,99.90
2018-02-11T08:41:22.244Z,99.90
2018-02-11T08:42:24.756Z,99.90
2018-02-11T08:43:27.270Z,99.90
2018-02-11T08:44:29.833Z,99.90
2018-02-11T08:45:32.353Z,99.90
2018-02-11T08:46:34.884Z,99.90
2018-02-11T08:47:37.407Z,99.90
2018-02-11T08:48:40.691Z,99.90
2018-02-11T08:49:44.012Z,99.90
2018-02-11T08:50:46.588Z,99.90
2018-02-11T08:51:49.112Z,99.90
2018-02-11T08:52:52.392Z,99.90
2018-02-11T08:53:55.698Z,99.90
2018-02-11T08:54:58.216Z,99.90
2018-02-11T08:56:00.781Z,99.90
2018-02-11T08:57:03.293Z,99.90
2018-02-11T08:58:05.817Z,99.90
2018-02-11T08:59:08.332Z,99.90
2018-02-11T09:00:10.849Z,99.90
2018-02-11T09:01:13.405Z,99.90
2018-02-11T09:02:16.150Z,99.90
2018-02-11T09:03:18.711Z,99.90
2018-02-11T09:04:21.280Z,99.90
2018-02-11T09:05:23.863Z,99.90
2018-02-11T09:06:26.458Z,99.90
2018-02-11T09:07:29.097Z,99.90
2018-02-11T09:08:31.621Z,99.90
2018-02-11T09:09:34.153Z,99.90
2018-02-11T09:10:36.714Z,99.90
2018-02-11T09:11:39.225Z,99.90
2018-02-11T09:12:41.742Z,99.90
2018-02-11T09:13:44.260Z,99.80
2018-02-11T09:14:46.768Z,99.90
2018-02-11T09:15:49.317Z,99.80
2018-02-11T09:16:51.824Z,99.70
2018-02-11T09:17:54.341Z,99.50
2018-02-11T09:18:56.881Z,99.40
2018-02-11T09:19:59.405Z,99.30
2018-02-11T09:21:01.925Z,99.40
2018-02-11T09:22:04.469Z,99.40
2018-02-11T09:23:07.749Z,99.30
2018-02-11T09:24:11.068Z,99.00
2018-02-11T09:25:13.581Z,99.00
2018-02-11T09:26:16.093Z,99.00
2018-02-11T09:27:18.614Z,99.30
2018-02-11T09:28:21.901Z,98.90
2018-02-11T09:29:24.449Z,98.90
2018-02-11T09:30:26.965Z,98.70
2018-02-11T09:31:29.480Z,98.80
2018-02-11T09:32:32.025Z,98.60
2018-02-11T09:33:34.582Z,98.40
2018-02-11T09:34:37.113Z,98.40
2018-02-11T09:35:39.641Z,98.20
2018-02-11T09:36:42.182Z,98.10
2018-02-11T09:37:44.712Z,98.00
2018-02-11T09:38:48.000Z,97.90
2018-02-11T09:39:51.314Z,97.60
2018-02-11T09:40:53.817Z,97.60
2018-02-11T09:41:56.333Z,97.70
2018-02-11T09:42:58.850Z,97.50
2018-02-11T09:44:01.398Z,97.40
2018-02-11T09:45:04.000Z,97.50
2018-02-11T09:46:06.495Z,97.60
2018-02-11T09:47:09.009Z,97.20
2018-02-11T09:48:11.521Z,97.00
2018-02-11T09:49:14.036Z,96.90
2018-02-11T09:50:16.629Z,97.00
2018-02-11T09:51:19.113Z,96.90
2018-02-11T09:52:21.627Z,97.00
2018-02-11T09:53:24.909Z,96.50
2018-02-11T09:54:27.426Z,96.30
2018-02-11T09:55:29.982Z,96.20
2018-02-11T09:56:33.301Z,95.30
2018-02-11T09:57:35.821Z,95.30
2018-02-11T09:58:38.338Z,95.10
2018-02-11T09:59:40.860Z,95.10
2018-02-11T10:00:44.138Z,95.30
2018-02-11T10:01:47.454Z,95.60
2018-02-11T10:02:49.972Z,95.20
2018-02-11T10:03:52.482Z,95.00
2018-02-11T10:04:54.987Z,94.80
2018-02-11T10:05:57.529Z,95.00
2018-02-11T10:07:00.089Z,95.00
2018-02-11T10:08:02.597Z,94.70
2018-02-11T10:09:05.109Z,94.80
2018-02-11T10:10:07.624Z,94.70
2018-02-11T10:11:10.144Z,94.10
2018-02-11T10:12:12.697Z,93.90
2018-02-11T10:13:15.968Z,93.70
2018-02-11T10:14:19.249Z,92.80
2018-02-11T10:15:22.530Z,92.70
2018-02-11T10:16:25.808Z,92.90
2018-02-11T10:17:28.504Z,92.90
2018-02-11T10:18:31.023Z,93.30
2018-02-11T10:19:33.540Z,92.70
2018-02-11T10:20:36.057Z,93.10
2018-02-11T10:21:38.585Z,93.00
2018-02-11T10:22:41.136Z,93.00
2018-02-11T10:23:43.649Z,93.30
2018-02-11T10:24:46.201Z,93.50
2018-02-11T10:25:48.721Z,93.10
2018-02-11T10:26:52.003Z,93.30
2018-02-11T10:27:54.537Z,93.40
2018-02-11T10:28:57.064Z,93.20
2018-02-11T10:29:59.605Z,93.50
2018-02-11T10:31:02.881Z,93.70
2018-02-11T10:32:06.160Z,93.80
2018-02-11T10:33:09.432Z,93.80
2018-02-11T10:34:11.949Z,93.80
2018-02-11T10:35:14.518Z,94.00
2018-02-11T10:36:17.025Z,93.50
2018-02-11T10:37:19.541Z,93.80
2018-02-11T10:38:22.058Z,93.80
2018-02-11T10:39:24.574Z,93.80
2018-02-11T10:40:27.137Z,94.10
2018-02-11T10:41:29.648Z,94.00
2018-02-11T10:42:32.160Z,93.60
2018-02-11T10:43:34.665Z,93.50
2018-02-11T10:44:37.177Z,93.50
2018-02-11T10:45:40.481Z,93.50
2018-02-11T10:46:42.992Z,93.50
2018-02-11T10:47:45.496Z,93.00
2018-02-11T10:48:48.900Z,93.30
2018-02-11T10:49:51.416Z,93.30
2018-02-11T10:50:53.942Z,93.10
2018-02-11T10:51:56.455Z,93.20
2018-02-11T10:52:59.009Z,92.80
2018-02-11T10:54:01.518Z,92.50
2018-02-11T10:55:04.042Z,92.40
2018-02-11T10:56:06.589Z,92.30
2018-02-11T10:57:09.114Z,92.30
2018-02-11T10:58:11.629Z,92.30
2018-02-11T10:59:14.171Z,92.30
2018-02-11T11:00:16.688Z,92.50
2018-02-11T11:01:19.964Z,92.70
2018-02-11T11:02:22.473Z,92.70
2018-02-11T11:03:25.046Z,92.60
2018-02-11T11:04:27.547Z,92.50
2018-02-11T11:05:30.059Z,92.80
2018-02-11T11:06:32.560Z,92.90
2018-02-11T11:07:35.094Z,92.70
2018-02-11T11:08:37.640Z,92.70
2018-02-11T11:09:40.916Z,92.80
2018-02-11T11:10:43.424Z,92.80
2018-02-11T11:11:45.944Z,92.70
2018-02-11T11:12:48.488Z,92.80
2018-02-11T11:13:51.005Z,93.10
2018-02-11T11:14:53.517Z,92.90
2018-02-11T11:15:56.033Z,92.90
2018-02-11T11:16:58.582Z,93.10
2018-02-11T11:18:01.860Z,93.30
2018-02-11T11:19:04.371Z,93.30
2018-02-11T11:20:06.890Z,93.20
2018-02-11T11:21:09.405Z,93.20
2018-02-11T11:22:11.958Z,93.10
2018-02-11T11:23:14.502Z,93.10
2018-02-11T11:24:17.780Z,93.40
2018-02-11T11:25:21.053Z,93.50
2018-02-11T11:26:23.606Z,93.50
2018-02-11T11:27:26.137Z,93.60
2018-02-11T11:28:28.650Z,93.60
2018-02-11T11:29:31.161Z,93.60
2018-02-11T11:30:33.709Z,93.60
2018-02-11T11:31:36.307Z,93.50
2018-02-11T11:32:38.817Z,93.40
2018-02-11T11:33:41.416Z,93.50
2018-02-11T11:34:43.928Z,93.50
2018-02-11T11:35:47.660Z,93.40
2018-02-11T11:36:50.985Z,93.60
2018-02-11T11:37:53.496Z,93.60
2018-02-11T11:38:56.776Z,93.60
2018-02-11T11:39:59.288Z,93.50
2018-02-11T11:41:01.805Z,93.50
2018-02-11T11:42:04.350Z,93.50
2018-02-11T11:43:06.901Z,93.60
2018-02-11T11:44:09.407Z,93.60
2018-02-11T11:45:11.923Z,93.60
2018-02-11T11:46:14.442Z,93.90
2018-02-11T11:47:17.716Z,93.50
2018-02-11T11:48:20.256Z,93.40
2018-02-11T11:49:22.764Z,93.50
2018-02-11T11:50:26.040Z,93.70
2018-02-11T11:51:29.324Z,93.30
2018-02-11T11:52:32.596Z,93.60
2018-02-11T11:53:35.153Z,93.30
2018-02-11T11:54:37.665Z,93.50
2018-02-11T11:55:40.176Z,93.10
2018-02-11T11:56:43.464Z,92.90
2018-02-11T11:57:45.985Z,92.90
2018-02-11T11:58:48.525Z,93.30
2018-02-11T11:59:51.805Z,93.30
2018-02-11T12:00:55.083Z,93.30
2018-02-11T12:01:58.413Z,93.50
2018-02-11T12:03:00.937Z,93.20
2018-02-11T12:04:04.254Z,93.10
2018-02-11T12:05:06.767Z,93.10
2018-02-11T12:06:09.313Z,93.40
2018-02-11T12:07:11.825Z,93.20
2018-02-11T12:08:15.109Z,93.30
2018-02-11T12:09:18.389Z,93.00
2018-02-11T12:10:21.728Z,93.20
2018-02-11T12:11:24.241Z,93.20
2018-02-11T12:12:27.522Z,93.40
2018-02-11T12:13:30.064Z,93.40
2018-02-11T12:14:32.632Z,93.60
2018-02-11T12:15:35.164Z,93.40
2018-02-11T12:16:37.689Z,93.10
2018-02-11T12:17:40.973Z,93.00
2018-02-11T12:18:44.245Z,93.00
2018-02-11T12:19:46.796Z,93.00
2018-02-11T12:20:49.339Z,92.80
2018-02-11T12:21:51.892Z,92.80
2018-02-11T12:22:54.413Z,92.90
2018-02-11T12:23:57.696Z,92.90
2018-02-11T12:25:00.281Z,92.90
2018-02-11T12:26:03.557Z,92.80
2018-02-11T12:27:06.883Z,92.90
2018-02-11T12:28:09.403Z,92.90
2018-02-11T12:29:12.687Z,93.00
2018-02-11T12:30:15.974Z,93.10
2018-02-11T12:31:19.256Z,93.10
2018-02-11T12:32:22.577Z,93.20
2018-02-11T12:33:25.098Z,93.20
2018-02-11T12:34:27.611Z,93.10
2018-02-11T12:35:30.132Z,93.40
2018-02-11T12:36:32.649Z,93.30
2018-02-11T12:37:35.581Z,93.50
2018-02-11T12:38:38.130Z,93.40
2018-02-11T12:39:40.649Z,93.50
2018-02-11T12:40:43.170Z,93.70
2018-02-11T12:41:45.682Z,93.50
2018-02-11T12:42:48.245Z,93.60
2018-02-11T12:43:50.748Z,93.50
2018-02-11T12:44:53.263Z,93.30
2018-02-11T12:45:55.777Z,93.30
2018-02-11T12:46:58.286Z,93.40
2018-02-11T12:48:00.831Z,93.50
2018-02-11T12:49:04.108Z,93.70
2018-02-11T12:50:06.625Z,93.70
2018-02-11T12:51:09.997Z,94.10
2018-02-11T12:52:12.548Z,94.10
2018-02-11T12:53:15.855Z,93.60
2018-02-11T12:54:18.368Z,93.60
2018-02-11T12:55:20.913Z,93.40
2018-02-11T12:56:23.422Z,93.10
2018-02-11T12:57:26.741Z,93.30
2018-02-11T12:58:29.262Z,93.30
2018-02-11T12:59:31.779Z,93.20
2018-02-11T13:00:34.325Z,93.40
2018-02-11T13:01:37.005Z,93.40
2018-02-11T13:02:40.264Z,93.00
2018-02-11T13:03:42.792Z,93.00
2018-02-11T13:04:45.352Z,92.90
2018-02-11T13:05:47.869Z,93.00
2018-02-11T13:06:50.384Z,93.00
2018-02-11T13:07:52.896Z,92.80
2018-02-11T13:08:56.175Z,92.80
2018-02-11T13:09:59.488Z,93.00
2018-02-11T13:11:02.176Z,93.00
2018-02-11T13:12:04.690Z,93.00
2018-02-11T13:13:07.972Z,92.50
2018-02-11T13:14:11.293Z,92.50
2018-02-11T13:15:13.804Z,92.40
2018-02-11T13:16:16.325Z,92.70
2018-02-11T13:17:18.835Z,92.50
2018-02-11T13:18:21.380Z,92.80
2018-02-11T13:19:23.929Z,92.70
2018-02-11T13:20:26.445Z,92.50
2018-02-11T13:21:29.737Z,92.50
2018-02-11T13:22:33.021Z,92.40
2018-02-11T13:23:35.533Z,92.40
2018-02-11T13:24:38.088Z,92.40
2018-02-11T13:25:40.612Z,92.50
2018-02-11T13:26:43.888Z,92.70
2018-02-11T13:27:46.403Z,92.70
2018-02-11T13:28:48.924Z,92.70